sensor_id;sensor_type;location;lat;lon;timestamp;pressure;altitude;pressure_sealevel;temperature;humidity
10484;BME280;5289;42.610;23.362;2022-08-19T00:00:49;90917.50;;;16.52;100.00
10484;BME280;5289;42.610;23.362;2022-08-19T00:03:16;90915.94;;;16.51;100.00
10484;BME280;5289;42.610;23.362;2022-08-19T00:05:42;90923.91;;;16.51;100.00
10484;BME280;5289;42.610;23.362;2022-08-19T00:08:09;90921.53;;;16.49;100.00
10484;BME280;5289;42.610;23.362;2022-08-19T00:10:37;90920.75;;;16.49;100.00
10484;BME280;5289;42.610;23.362;2022-08-19T00:13:03;90917.59;;;16.47;100.00
10484;BME280;5289;42.610;23.362;2022-08-19T00:15:30;90914.44;;;16.45;100.00
10484;BME280;5289;42.610;23.362;2022-08-19T00:17:56;90909.69;;;16.41;100.00
10484;BME280;5289;42.610;23.362;2022-08-19T00:20:23;90922.47;;;16.39;100.00
10484;BME280;5289;42.610;23.362;2022-08-19T00:22:50;90923.56;;;16.38;100.00
10484;BME280;5289;42.610;23.362;2022-08-19T00:25:17;90920.38;;;16.36;100.00
10484;BME280;5289;42.610;23.362;2022-08-19T00:27:45;90921.47;;;16.35;100.00
10484;BME280;5289;42.610;23.362;2022-08-19T00:30:12;90909.31;;;16.34;100.00
10484;BME280;5289;42.610;23.362;2022-08-19T00:32:39;90907.72;;;16.33;100.00
10484;BME280;5289;42.610;23.362;2022-08-19T00:35:06;90900.84;;;16.32;100.00
10484;BME280;5289;42.610;23.362;2022-08-19T00:37:34;90906.41;;;16.31;100.00
10484;BME280;5289;42.610;23.362;2022-08-19T00:40:02;90902.19;;;16.30;100.00
10484;BME280;5289;42.610;23.362;2022-08-19T00:42:29;90890.78;;;16.29;100.00
10484;BME280;5289;42.610;23.362;2022-08-19T00:44:57;90889.00;;;16.25;100.00
10484;BME280;5289;42.610;23.362;2022-08-19T00:47:23;90892.75;;;16.24;100.00
10484;BME280;5289;42.610;23.362;2022-08-19T00:49:51;90887.72;;;16.22;100.00
10484;BME280;5289;42.610;23.362;2022-08-19T00:52:19;90890.94;;;16.19;100.00
10484;BME280;5289;42.610;23.362;2022-08-19T00:54:47;90892.31;;;16.17;100.00
10484;BME280;5289;42.610;23.362;2022-08-19T00:57:14;90886.81;;;16.13;100.00
10484;BME280;5289;42.610;23.362;2022-08-19T00:59:42;90875.41;;;16.13;100.00
10484;BME280;5289;42.610;23.362;2022-08-19T01:02:10;90872.25;;;16.11;100.00
10484;BME280;5289;42.610;23.362;2022-08-19T01:04:37;90883.13;;;16.09;100.00
10484;BME280;5289;42.610;23.362;2022-08-19T01:07:03;90880.50;;;16.09;100.00
10484;BME280;5289;42.610;23.362;2022-08-19T01:09:31;90894.25;;;16.11;100.00
10484;BME280;5289;42.610;23.362;2022-08-19T01:11:57;90904.66;;;16.08;100.00
10484;BME280;5289;42.610;23.362;2022-08-19T01:14:24;90894.31;;;16.06;100.00
10484;BME280;5289;42.610;23.362;2022-08-19T01:16:51;90909.44;;;16.06;100.00
10484;BME280;5289;42.610;23.362;2022-08-19T01:19:22;90906.59;;;16.02;100.00
10484;BME280;5289;42.610;23.362;2022-08-19T01:21:54;90908.72;;;16.00;100.00
10484;BME280;5289;42.610;23.362;2022-08-19T01:24:23;90904.00;;;15.97;100.00
10484;BME280;5289;42.610;23.362;2022-08-19T01:26:49;90904.56;;;15.94;100.00
10484;BME280;5289;42.610;23.362;2022-08-19T01:29:16;90895.34;;;15.91;100.00
10484;BME280;5289;42.610;23.362;2022-08-19T01:31:42;90892.75;;;15.86;100.00
10484;BME280;5289;42.610;23.362;2022-08-19T01:34:09;90883.50;;;15.84;100.00
10484;BME280;5289;42.610;23.362;2022-08-19T01:36:38;90876.63;;;15.83;100.00
10484;BME280;5289;42.610;23.362;2022-08-19T01:39:07;90870.53;;;15.82;100.00
10484;BME280;5289;42.610;23.362;2022-08-19T01:41:36;90870.84;;;15.81;100.00
10484;BME280;5289;42.610;23.362;2022-08-19T01:44:02;90869.25;;;15.80;100.00
10484;BME280;5289;42.610;23.362;2022-08-19T01:46:29;90874.84;;;15.78;100.00
10484;BME280;5289;42.610;23.362;2022-08-19T01:48:56;90883.06;;;15.77;100.00
10484;BME280;5289;42.610;23.362;2022-08-19T01:51:23;90890.78;;;15.73;100.00
10484;BME280;5289;42.610;23.362;2022-08-19T01:53:50;90889.22;;;15.72;100.00
10484;BME280;5289;42.610;23.362;2022-08-19T01:56:17;90899.31;;;15.70;100.00
10484;BME280;5289;42.610;23.362;2022-08-19T01:58:46;90898.59;;;15.65;100.00
10484;BME280;5289;42.610;23.362;2022-08-19T02:01:14;90888.56;;;15.62;100.00
10484;BME280;5289;42.610;23.362;2022-08-19T02:03:41;90878.53;;;15.58;100.00
10484;BME280;5289;42.610;23.362;2022-08-19T02:06:07;90870.09;;;15.56;100.00
10484;BME280;5289;42.610;23.362;2022-08-19T02:08:35;90859.50;;;15.56;100.00
10484;BME280;5289;42.610;23.362;2022-08-19T02:11:02;90868.22;;;15.57;100.00
10484;BME280;5289;42.610;23.362;2022-08-19T02:13:29;90851.53;;;15.56;100.00
10484;BME280;5289;42.610;23.362;2022-08-19T02:15:57;90868.22;;;15.57;100.00
10484;BME280;5289;42.610;23.362;2022-08-19T02:18:23;90865.31;;;15.58;100.00
10484;BME280;5289;42.610;23.362;2022-08-19T02:20:51;90867.72;;;15.55;100.00
10484;BME280;5289;42.610;23.362;2022-08-19T02:23:18;90876.22;;;15.52;100.00
10484;BME280;5289;42.610;23.362;2022-08-19T02:25:48;90881.28;;;15.48;100.00
10484;BME280;5289;42.610;23.362;2022-08-19T02:28:15;90888.72;;;15.46;100.00
10484;BME280;5289;42.610;23.362;2022-08-19T02:30:42;90873.09;;;15.45;100.00
10484;BME280;5289;42.610;23.362;2022-08-19T02:33:10;90864.09;;;15.46;100.00
10484;BME280;5289;42.610;23.362;2022-08-19T02:35:36;90865.69;;;15.47;100.00
10484;BME280;5289;42.610;23.362;2022-08-19T02:38:03;90874.97;;;15.44;100.00
10484;BME280;5289;42.610;23.362;2022-08-19T02:40:50;90868.66;;;15.40;100.00
10484;BME280;5289;42.610;23.362;2022-08-19T02:43:18;90876.66;;;15.35;100.00
10484;BME280;5289;42.610;23.362;2022-08-19T02:45:46;90875.09;;;15.34;100.00
10484;BME280;5289;42.610;23.362;2022-08-19T02:48:14;90874.88;;;15.31;100.00
10484;BME280;5289;42.610;23.362;2022-08-19T02:50:42;90873.56;;;15.28;100.00
10484;BME280;5289;42.610;23.362;2022-08-19T02:53:09;90875.72;;;15.26;100.00
10484;BME280;5289;42.610;23.362;2022-08-19T02:55:35;90880.50;;;15.24;100.00
10484;BME280;5289;42.610;23.362;2022-08-19T02:58:02;90889.56;;;15.18;100.00
10484;BME280;5289;42.610;23.362;2022-08-19T03:00:29;90872.41;;;15.15;100.00
10484;BME280;5289;42.610;23.362;2022-08-19T03:02:56;90877.44;;;15.12;100.00
10484;BME280;5289;42.610;23.362;2022-08-19T03:05:24;90864.28;;;15.07;100.00
10484;BME280;5289;42.610;23.362;2022-08-19T03:07:50;90876.22;;;15.04;100.00
10484;BME280;5289;42.610;23.362;2022-08-19T03:10:17;90862.22;;;15.04;100.00
10484;BME280;5289;42.610;23.362;2022-08-19T03:12:44;90849.56;;;15.01;100.00
10484;BME280;5289;42.610;23.362;2022-08-19T03:15:11;90841.63;;;15.01;100.00
10484;BME280;5289;42.610;23.362;2022-08-19T03:17:37;90836.59;;;14.99;100.00
10484;BME280;5289;42.610;23.362;2022-08-19T03:20:04;90830.50;;;14.99;100.00
10484;BME280;5289;42.610;23.362;2022-08-19T03:22:32;90833.44;;;14.97;100.00
10484;BME280;5289;42.610;23.362;2022-08-19T03:24:59;90829.50;;;14.95;100.00
10484;BME280;5289;42.610;23.362;2022-08-19T03:27:26;90830.56;;;14.94;100.00
10484;BME280;5289;42.610;23.362;2022-08-19T03:29:52;90826.63;;;14.91;100.00
10484;BME280;5289;42.610;23.362;2022-08-19T03:32:19;90819.47;;;14.92;100.00
10484;BME280;5289;42.610;23.362;2022-08-19T03:34:47;90814.97;;;14.92;100.00
10484;BME280;5289;42.610;23.362;2022-08-19T03:37:13;90810.69;;;14.96;100.00
10484;BME280;5289;42.610;23.362;2022-08-19T03:39:41;90797.97;;;14.98;100.00
10484;BME280;5289;42.610;23.362;2022-08-19T03:42:08;90798.69;;;15.04;100.00
10484;BME280;5289;42.610;23.362;2022-08-19T03:44:35;90787.47;;;15.12;100.00
10484;BME280;5289;42.610;23.362;2022-08-19T03:47:02;90786.56;;;15.22;100.00
10484;BME280;5289;42.610;23.362;2022-08-19T03:49:30;90781.69;;;15.29;100.00
10484;BME280;5289;42.610;23.362;2022-08-19T03:51:58;90783.16;;;15.40;100.00
10484;BME280;5289;42.610;23.362;2022-08-19T03:54:26;90782.19;;;15.54;100.00
10484;BME280;5289;42.610;23.362;2022-08-19T03:56:55;90777.47;;;15.70;100.00
10484;BME280;5289;42.610;23.362;2022-08-19T03:59:23;90777.72;;;15.87;100.00
10484;BME280;5289;42.610;23.362;2022-08-19T04:01:51;90792.63;;;16.02;100.00
10484;BME280;5289;42.610;23.362;2022-08-19T04:04:18;90795.03;;;16.17;100.00
10484;BME280;5289;42.610;23.362;2022-08-19T04:06:45;90801.66;;;16.33;100.00
10484;BME280;5289;42.610;23.362;2022-08-19T04:09:12;90806.59;;;16.54;100.00
10484;BME280;5289;42.610;23.362;2022-08-19T04:11:39;90800.88;;;17.06;100.00
10484;BME280;5289;42.610;23.362;2022-08-19T04:14:08;90824.38;;;17.40;100.00
10484;BME280;5289;42.610;23.362;2022-08-19T04:16:35;90864.66;;;17.61;100.00
10484;BME280;5289;42.610;23.362;2022-08-19T04:19:02;90902.91;;;17.87;100.00
10484;BME280;5289;42.610;23.362;2022-08-19T04:21:29;90929.63;;;18.32;100.00
10484;BME280;5289;42.610;23.362;2022-08-19T04:23:56;90928.78;;;19.34;100.00
10484;BME280;5289;42.610;23.362;2022-08-19T04:26:24;90976.47;;;21.06;100.00
10484;BME280;5289;42.610;23.362;2022-08-19T04:28:51;91124.59;;;22.63;100.00
10484;BME280;5289;42.610;23.362;2022-08-19T04:31:20;91428.09;;;23.79;100.00
10484;BME280;5289;42.610;23.362;2022-08-19T04:33:46;91745.91;;;24.55;100.00
10484;BME280;5289;42.610;23.362;2022-08-19T04:36:16;91896.41;;;25.07;100.00
10484;BME280;5289;42.610;23.362;2022-08-19T04:38:45;91982.06;;;25.86;100.00
10484;BME280;5289;42.610;23.362;2022-08-19T04:41:12;92023.38;;;26.83;100.00
10484;BME280;5289;42.610;23.362;2022-08-19T04:43:56;92083.50;;;27.72;100.00
10484;BME280;5289;42.610;23.362;2022-08-19T04:46:24;92114.06;;;28.38;100.00
10484;BME280;5289;42.610;23.362;2022-08-19T04:48:50;92157.06;;;29.09;100.00
10484;BME280;5289;42.610;23.362;2022-08-19T04:51:17;92160.66;;;29.74;100.00
10484;BME280;5289;42.610;23.362;2022-08-19T04:53:45;92166.69;;;30.19;100.00
10484;BME280;5289;42.610;23.362;2022-08-19T04:56:14;92212.13;;;30.78;100.00
10484;BME280;5289;42.610;23.362;2022-08-19T04:58:43;92303.38;;;31.38;100.00
10484;BME280;5289;42.610;23.362;2022-08-19T05:01:12;92420.16;;;31.78;100.00
10484;BME280;5289;42.610;23.362;2022-08-19T05:03:40;92465.06;;;32.15;100.00
10484;BME280;5289;42.610;23.362;2022-08-19T05:06:07;92518.88;;;32.53;100.00
10484;BME280;5289;42.610;23.362;2022-08-19T05:08:35;92564.72;;;32.98;100.00
10484;BME280;5289;42.610;23.362;2022-08-19T05:11:07;92617.00;;;33.35;100.00
10484;BME280;5289;42.610;23.362;2022-08-19T05:13:34;92628.84;;;33.74;100.00
10484;BME280;5289;42.610;23.362;2022-08-19T05:16:01;92666.94;;;34.06;100.00
10484;BME280;5289;42.610;23.362;2022-08-19T05:18:27;92653.50;;;34.32;100.00
10484;BME280;5289;42.610;23.362;2022-08-19T05:21:13;92730.22;;;34.65;100.00
10484;BME280;5289;42.610;23.362;2022-08-19T05:23:58;92688.13;;;34.86;100.00
10484;BME280;5289;42.610;23.362;2022-08-19T05:26:25;92736.56;;;34.89;100.00
10484;BME280;5289;42.610;23.362;2022-08-19T05:28:52;92786.59;;;35.12;100.00
10484;BME280;5289;42.610;23.362;2022-08-19T05:31:18;92757.88;;;35.41;100.00
10484;BME280;5289;42.610;23.362;2022-08-19T05:33:45;92793.44;;;35.64;100.00
10484;BME280;5289;42.610;23.362;2022-08-19T05:36:13;92800.16;;;35.89;100.00
10484;BME280;5289;42.610;23.362;2022-08-19T05:38:39;92832.59;;;36.13;100.00
10484;BME280;5289;42.610;23.362;2022-08-19T05:41:06;92849.31;;;36.27;100.00
10484;BME280;5289;42.610;23.362;2022-08-19T05:43:33;92864.91;;;36.04;100.00
10484;BME280;5289;42.610;23.362;2022-08-19T05:46:00;92864.38;;;35.95;100.00
10484;BME280;5289;42.610;23.362;2022-08-19T05:48:26;92859.25;;;36.62;100.00
10484;BME280;5289;42.610;23.362;2022-08-19T05:50:53;92913.59;;;37.39;100.00
10484;BME280;5289;42.610;23.362;2022-08-19T05:53:21;92949.25;;;37.69;100.00
10484;BME280;5289;42.610;23.362;2022-08-19T05:55:47;92963.72;;;38.36;100.00
10484;BME280;5289;42.610;23.362;2022-08-19T05:58:14;92960.88;;;38.62;100.00
10484;BME280;5289;42.610;23.362;2022-08-19T06:00:40;92996.28;;;39.15;100.00
10484;BME280;5289;42.610;23.362;2022-08-19T06:03:08;92964.75;;;39.05;100.00
10484;BME280;5289;42.610;23.362;2022-08-19T06:05:35;92983.78;;;39.28;100.00
10484;BME280;5289;42.610;23.362;2022-08-19T06:08:02;93021.25;;;38.96;100.00
10484;BME280;5289;42.610;23.362;2022-08-19T06:10:31;93012.25;;;39.53;100.00
10484;BME280;5289;42.610;23.362;2022-08-19T06:12:57;93047.03;;;39.79;100.00
10484;BME280;5289;42.610;23.362;2022-08-19T06:15:24;93050.88;;;39.71;100.00
10484;BME280;5289;42.610;23.362;2022-08-19T06:17:51;93048.34;;;38.23;100.00
10484;BME280;5289;42.610;23.362;2022-08-19T06:20:18;92930.88;;;38.91;100.00
10484;BME280;5289;42.610;23.362;2022-08-19T06:22:46;93021.16;;;40.02;100.00
10484;BME280;5289;42.610;23.362;2022-08-19T06:25:13;93040.28;;;40.60;100.00
10484;BME280;5289;42.610;23.362;2022-08-19T06:27:41;92976.16;;;40.88;100.00
10484;BME280;5289;42.610;23.362;2022-08-19T06:30:09;93008.88;;;41.14;100.00
10484;BME280;5289;42.610;23.362;2022-08-19T06:32:37;93007.31;;;41.24;100.00
10484;BME280;5289;42.610;23.362;2022-08-19T06:35:04;93041.75;;;40.25;100.00
10484;BME280;5289;42.610;23.362;2022-08-19T06:37:31;93030.34;;;40.23;100.00
10484;BME280;5289;42.610;23.362;2022-08-19T06:39:57;92984.06;;;41.10;100.00
10484;BME280;5289;42.610;23.362;2022-08-19T06:42:24;93011.25;;;41.05;100.00
10484;BME280;5289;42.610;23.362;2022-08-19T06:44:52;93033.31;;;41.30;100.00
10484;BME280;5289;42.610;23.362;2022-08-19T06:47:19;93043.56;;;41.54;100.00
10484;BME280;5289;42.610;23.362;2022-08-19T06:49:46;93032.88;;;41.63;100.00
10484;BME280;5289;42.610;23.362;2022-08-19T06:52:12;93054.91;;;40.78;100.00
10484;BME280;5289;42.610;23.362;2022-08-19T06:54:39;93026.19;;;41.00;100.00
10484;BME280;5289;42.610;23.362;2022-08-19T06:57:06;93051.84;;;41.54;100.00
10484;BME280;5289;42.610;23.362;2022-08-19T06:59:34;93045.06;;;41.83;100.00
10484;BME280;5289;42.610;23.362;2022-08-19T07:02:04;93024.66;;;41.17;100.00
10484;BME280;5289;42.610;23.362;2022-08-19T07:04:31;93055.38;;;41.58;100.00
10484;BME280;5289;42.610;23.362;2022-08-19T07:06:59;93059.22;;;40.72;100.00
10484;BME280;5289;42.610;23.362;2022-08-19T07:09:26;93048.69;;;39.98;100.00
10484;BME280;5289;42.610;23.362;2022-08-19T07:11:53;93053.66;;;40.58;100.00
10484;BME280;5289;42.610;23.362;2022-08-19T07:14:21;93055.38;;;41.62;100.00
10484;BME280;5289;42.610;23.362;2022-08-19T07:16:48;93065.19;;;41.84;100.00
10484;BME280;5289;42.610;23.362;2022-08-19T07:19:16;93037.38;;;42.51;100.00
10484;BME280;5289;42.610;23.362;2022-08-19T07:21:43;93052.97;;;41.85;100.00
10484;BME280;5289;42.610;23.362;2022-08-19T07:24:10;93065.53;;;42.11;100.00
10484;BME280;5289;42.610;23.362;2022-08-19T07:26:38;93053.50;;;40.12;100.00
10484;BME280;5289;42.610;23.362;2022-08-19T07:29:05;93060.81;;;40.76;100.00
10484;BME280;5289;42.610;23.362;2022-08-19T07:31:31;93067.19;;;41.76;100.00
10484;BME280;5289;42.610;23.362;2022-08-19T07:34:02;93069.53;;;41.81;100.00
10484;BME280;5289;42.610;23.362;2022-08-19T07:36:33;93052.97;;;41.81;100.00
10484;BME280;5289;42.610;23.362;2022-08-19T07:39:02;93070.97;;;42.46;100.00
10484;BME280;5289;42.610;23.362;2022-08-19T07:41:30;93069.47;;;42.31;100.00
10484;BME280;5289;42.610;23.362;2022-08-19T07:43:57;93061.94;;;42.21;100.00
10484;BME280;5289;42.610;23.362;2022-08-19T07:46:27;93061.22;;;42.06;100.00
10484;BME280;5289;42.610;23.362;2022-08-19T07:48:53;93044.53;;;42.38;100.00
10484;BME280;5289;42.610;23.362;2022-08-19T07:51:20;93054.31;;;42.53;100.00
10484;BME280;5289;42.610;23.362;2022-08-19T07:53:49;93072.22;;;43.04;100.00
10484;BME280;5289;42.610;23.362;2022-08-19T07:56:16;93068.44;;;42.76;100.00
10484;BME280;5289;42.610;23.362;2022-08-19T07:58:43;93063.22;;;42.93;100.00
10484;BME280;5289;42.610;23.362;2022-08-19T08:01:10;93066.06;;;42.82;100.00
10484;BME280;5289;42.610;23.362;2022-08-19T08:03:37;93059.22;;;42.14;100.00
10484;BME280;5289;42.610;23.362;2022-08-19T08:06:21;93066.97;;;42.54;100.00
10484;BME280;5289;42.610;23.362;2022-08-19T08:09:07;93069.56;;;42.90;96.45
10484;BME280;5289;42.610;23.362;2022-08-19T08:11:47;93063.28;;;41.56;100.00
10484;BME280;5289;42.610;23.362;2022-08-19T08:14:15;93044.78;;;42.65;100.00
10484;BME280;5289;42.610;23.362;2022-08-19T08:16:42;93052.13;;;42.09;100.00
10484;BME280;5289;42.610;23.362;2022-08-19T08:19:10;93057.88;;;43.23;100.00
10484;BME280;5289;42.610;23.362;2022-08-19T08:21:39;93046.41;;;40.14;100.00
10484;BME280;5289;42.610;23.362;2022-08-19T08:24:08;93013.13;;;40.62;100.00
10484;BME280;5289;42.610;23.362;2022-08-19T08:26:34;93034.31;;;42.21;100.00
10484;BME280;5289;42.610;23.362;2022-08-19T08:29:01;93038.03;;;42.76;100.00
10484;BME280;5289;42.610;23.362;2022-08-19T08:31:28;93038.25;;;43.03;100.00
10484;BME280;5289;42.610;23.362;2022-08-19T08:33:54;93028.41;;;43.50;100.00
10484;BME280;5289;42.610;23.362;2022-08-19T08:36:21;93057.13;;;42.50;89.46
10484;BME280;5289;42.610;23.362;2022-08-19T08:38:47;93056.97;;;42.81;85.56
10484;BME280;5289;42.610;23.362;2022-08-19T08:41:18;93050.66;;;41.55;92.07
10484;BME280;5289;42.610;23.362;2022-08-19T08:43:48;93046.72;;;41.13;92.67
10484;BME280;5289;42.610;23.362;2022-08-19T08:46:17;93044.34;;;41.15;97.24
10484;BME280;5289;42.610;23.362;2022-08-19T08:48:46;93038.03;;;41.22;100.00
10484;BME280;5289;42.610;23.362;2022-08-19T08:51:16;93016.72;;;41.65;100.00
10484;BME280;5289;42.610;23.362;2022-08-19T08:53:45;93044.34;;;41.58;75.87
10484;BME280;5289;42.610;23.362;2022-08-19T08:56:12;93038.72;;;42.08;94.20
10484;BME280;5289;42.610;23.362;2022-08-19T08:58:45;93036.34;;;40.61;90.05
10484;BME280;5289;42.610;23.362;2022-08-19T09:01:12;93040.38;;;40.92;85.97
10484;BME280;5289;42.610;23.362;2022-08-19T09:03:40;93031.19;;;42.12;89.07
10484;BME280;5289;42.610;23.362;2022-08-19T09:06:11;93018.13;;;42.96;100.00
10484;BME280;5289;42.610;23.362;2022-08-19T09:08:40;93032.66;;;43.14;87.12
10484;BME280;5289;42.610;23.362;2022-08-19T09:11:10;93030.41;;;42.95;88.75
10484;BME280;5289;42.610;23.362;2022-08-19T09:13:44;93029.72;;;41.82;66.17
10484;BME280;5289;42.610;23.362;2022-08-19T09:16:16;93026.56;;;41.77;73.12
10484;BME280;5289;42.610;23.362;2022-08-19T09:18:44;93025.16;;;40.11;79.76
10484;BME280;5289;42.610;23.362;2022-08-19T09:21:11;93018.09;;;39.41;83.54
10484;BME280;5289;42.610;23.362;2022-08-19T09:23:38;93008.63;;;40.11;100.00
10484;BME280;5289;42.610;23.362;2022-08-19T09:26:08;93019.38;;;39.58;92.18
10484;BME280;5289;42.610;23.362;2022-08-19T09:28:35;92999.09;;;36.73;100.00
10484;BME280;5289;42.610;23.362;2022-08-19T09:31:03;92988.66;;;34.74;100.00
10484;BME280;5289;42.610;23.362;2022-08-19T09:33:30;92941.41;;;34.10;100.00
10484;BME280;5289;42.610;23.362;2022-08-19T09:36:01;92963.56;;;33.13;100.00
10484;BME280;5289;42.610;23.362;2022-08-19T09:38:28;92968.06;;;32.69;100.00
10484;BME280;5289;42.610;23.362;2022-08-19T09:40:55;92932.19;;;32.43;100.00
10484;BME280;5289;42.610;23.362;2022-08-19T09:43:21;92920.16;;;32.80;100.00
10484;BME280;5289;42.610;23.362;2022-08-19T09:45:48;92943.94;;;33.08;100.00
10484;BME280;5289;42.610;23.362;2022-08-19T09:48:16;92946.66;;;33.20;100.00
10484;BME280;5289;42.610;23.362;2022-08-19T09:50:43;92916.41;;;33.37;100.00
10484;BME280;5289;42.610;23.362;2022-08-19T09:53:10;92933.53;;;33.50;100.00
10484;BME280;5289;42.610;23.362;2022-08-19T09:55:41;92870.22;;;33.56;100.00
10484;BME280;5289;42.610;23.362;2022-08-19T09:58:07;92951.69;;;32.81;100.00
10484;BME280;5289;42.610;23.362;2022-08-19T10:00:34;92947.63;;;32.27;100.00
10484;BME280;5289;42.610;23.362;2022-08-19T10:03:03;92920.19;;;32.32;100.00
10484;BME280;5289;42.610;23.362;2022-08-19T10:05:31;92797.63;;;32.80;100.00
10484;BME280;5289;42.610;23.362;2022-08-19T10:08:16;92944.88;;;32.39;100.00
10484;BME280;5289;42.610;23.362;2022-08-19T10:10:43;92876.53;;;32.52;100.00
10484;BME280;5289;42.610;23.362;2022-08-19T10:13:10;92944.66;;;32.56;100.00
10484;BME280;5289;42.610;23.362;2022-08-19T10:15:37;92902.13;;;32.76;100.00
10484;BME280;5289;42.610;23.362;2022-08-19T10:18:05;92915.81;;;32.91;100.00
10484;BME280;5289;42.610;23.362;2022-08-19T10:20:34;92928.06;;;33.10;100.00
10484;BME280;5289;42.610;23.362;2022-08-19T10:23:02;92861.47;;;33.35;100.00
10484;BME280;5289;42.610;23.362;2022-08-19T10:25:29;92904.38;;;33.38;100.00
10484;BME280;5289;42.610;23.362;2022-08-19T10:27:56;92966.34;;;32.77;100.00
10484;BME280;5289;42.610;23.362;2022-08-19T10:30:23;92919.28;;;32.52;100.00
10484;BME280;5289;42.610;23.362;2022-08-19T10:32:49;92935.38;;;32.81;100.00
10484;BME280;5289;42.610;23.362;2022-08-19T10:35:16;92878.47;;;33.04;100.00
10484;BME280;5289;42.610;23.362;2022-08-19T10:37:44;92950.91;;;32.93;100.00
10484;BME280;5289;42.610;23.362;2022-08-19T10:40:11;92956.00;;;32.94;100.00
10484;BME280;5289;42.610;23.362;2022-08-19T10:42:37;92943.34;;;32.74;100.00
10484;BME280;5289;42.610;23.362;2022-08-19T10:45:04;92942.06;;;32.72;100.00
10484;BME280;5289;42.610;23.362;2022-08-19T10:47:32;92906.53;;;32.80;100.00
10484;BME280;5289;42.610;23.362;2022-08-19T10:49:59;92896.47;;;32.44;100.00
10484;BME280;5289;42.610;23.362;2022-08-19T10:52:45;92927.78;;;32.26;100.00
10484;BME280;5289;42.610;23.362;2022-08-19T10:55:12;92946.41;;;32.03;100.00
10484;BME280;5289;42.610;23.362;2022-08-19T10:57:56;92936.94;;;32.34;100.00
10484;BME280;5289;42.610;23.362;2022-08-19T11:00:23;92931.88;;;32.69;100.00
10484;BME280;5289;42.610;23.362;2022-08-19T11:02:51;92940.03;;;32.69;100.00
10484;BME280;5289;42.610;23.362;2022-08-19T11:05:17;92932.31;;;32.71;100.00
10484;BME280;5289;42.610;23.362;2022-08-19T11:07:46;92917.19;;;32.97;100.00
10484;BME280;5289;42.610;23.362;2022-08-19T11:10:13;92931.41;;;32.79;100.00
10484;BME280;5289;42.610;23.362;2022-08-19T11:12:40;92930.81;;;32.49;100.00
10484;BME280;5289;42.610;23.362;2022-08-19T11:15:08;92925.59;;;32.56;100.00
10484;BME280;5289;42.610;23.362;2022-08-19T11:17:35;92927.78;;;32.63;100.00
10484;BME280;5289;42.610;23.362;2022-08-19T11:20:05;92913.97;;;32.68;100.00
10484;BME280;5289;42.610;23.362;2022-08-19T11:22:32;92938.78;;;32.78;100.00
10484;BME280;5289;42.610;23.362;2022-08-19T11:25:00;92864.75;;;33.00;100.00
10484;BME280;5289;42.610;23.362;2022-08-19T11:27:27;92889.28;;;33.00;100.00
10484;BME280;5289;42.610;23.362;2022-08-19T11:29:54;92891.81;;;32.57;100.00
10484;BME280;5289;42.610;23.362;2022-08-19T11:32:20;92897.06;;;32.74;100.00
10484;BME280;5289;42.610;23.362;2022-08-19T11:34:47;92917.00;;;32.42;100.00
10484;BME280;5289;42.610;23.362;2022-08-19T11:37:13;92879.78;;;32.70;100.00
10484;BME280;5289;42.610;23.362;2022-08-19T11:39:41;92854.41;;;32.66;100.00
10484;BME280;5289;42.610;23.362;2022-08-19T11:42:09;92906.22;;;32.45;100.00
10484;BME280;5289;42.610;23.362;2022-08-19T11:44:53;92907.03;;;32.58;100.00
10484;BME280;5289;42.610;23.362;2022-08-19T11:47:20;92909.41;;;32.47;100.00
10484;BME280;5289;42.610;23.362;2022-08-19T11:49:47;92839.22;;;32.53;100.00
10484;BME280;5289;42.610;23.362;2022-08-19T11:52:14;92826.72;;;32.64;100.00
10484;BME280;5289;42.610;23.362;2022-08-19T11:54:40;92797.16;;;32.90;100.00
10484;BME280;5289;42.610;23.362;2022-08-19T11:57:08;92856.78;;;33.08;100.00
10484;BME280;5289;42.610;23.362;2022-08-19T11:59:34;92842.91;;;33.13;100.00
10484;BME280;5289;42.610;23.362;2022-08-19T12:02:01;92843.59;;;33.22;100.00
10484;BME280;5289;42.610;23.362;2022-08-19T12:04:28;92876.16;;;32.78;100.00
10484;BME280;5289;42.610;23.362;2022-08-19T12:06:55;92831.03;;;33.05;100.00
10484;BME280;5289;42.610;23.362;2022-08-19T12:09:21;92867.66;;;32.80;100.00
10484;BME280;5289;42.610;23.362;2022-08-19T12:11:48;92848.22;;;32.81;100.00
10484;BME280;5289;42.610;23.362;2022-08-19T12:14:17;92818.44;;;32.73;100.00
10484;BME280;5289;42.610;23.362;2022-08-19T12:16:44;92872.72;;;32.93;100.00
10484;BME280;5289;42.610;23.362;2022-08-19T12:19:10;92823.19;;;33.04;100.00
10484;BME280;5289;42.610;23.362;2022-08-19T12:21:37;92690.66;;;33.23;100.00
10484;BME280;5289;42.610;23.362;2022-08-19T12:24:04;92769.53;;;33.32;100.00
10484;BME280;5289;42.610;23.362;2022-08-19T12:26:31;92852.31;;;32.87;100.00
10484;BME280;5289;42.610;23.362;2022-08-19T12:28:57;92823.13;;;33.00;100.00
10484;BME280;5289;42.610;23.362;2022-08-19T12:31:26;92844.78;;;32.69;100.00
10484;BME280;5289;42.610;23.362;2022-08-19T12:33:53;92780.53;;;32.80;100.00
10484;BME280;5289;42.610;23.362;2022-08-19T12:36:20;92655.94;;;33.05;100.00
10484;BME280;5289;42.610;23.362;2022-08-19T12:38:48;92849.88;;;32.58;100.00
10484;BME280;5289;42.610;23.362;2022-08-19T12:41:15;92835.09;;;32.59;100.00
10484;BME280;5289;42.610;23.362;2022-08-19T12:43:43;92719.34;;;32.89;100.00
10484;BME280;5289;42.610;23.362;2022-08-19T12:46:10;92807.66;;;33.04;100.00
10484;BME280;5289;42.610;23.362;2022-08-19T12:48:38;92798.00;;;33.07;100.00
10484;BME280;5289;42.610;23.362;2022-08-19T12:51:07;92850.19;;;33.09;100.00
10484;BME280;5289;42.610;23.362;2022-08-19T12:53:34;92825.16;;;32.91;100.00